createdAt,value
2022-11-03T00:00:48.635Z,5.90
2022-11-03T00:02:48.753Z,6.00
2022-11-03T00:04:48.604Z,6.10
2022-11-03T00:06:48.619Z,6.20
2022-11-03T00:08:48.642Z,6.20
2022-11-03T00:10:48.682Z,6.20
2022-11-03T00:12:48.734Z,6.20
2022-11-03T00:14:48.619Z,6.10
2022-11-03T00:16:48.662Z,6.10
2022-11-03T00:18:48.699Z,6.10
2022-11-03T00:20:48.651Z,6.10
2022-11-03T00:22:48.718Z,6.10
2022-11-03T00:24:48.609Z,6.10
2022-11-03T00:26:48.614Z,6.00
2022-11-03T00:28:48.666Z,6.00
2022-11-03T00:30:48.618Z,6.00
2022-11-03T00:32:48.643Z,5.90
2022-11-03T00:34:48.643Z,5.80
2022-11-03T00:37:18.635Z,5.70
2022-11-03T00:39:18.638Z,5.70
2022-11-03T00:41:18.643Z,5.60
2022-11-03T00:43:18.646Z,5.50
2022-11-03T00:45:18.645Z,5.50
2022-11-03T00:47:21.674Z,5.60
2022-11-03T00:49:18.714Z,5.60
2022-11-03T00:51:18.622Z,5.70
2022-11-03T00:53:18.648Z,5.80
2022-11-03T00:55:18.788Z,5.80
2022-11-03T00:57:18.623Z,5.80
2022-11-03T00:59:18.685Z,5.80
2022-11-03T01:01:18.807Z,5.70
2022-11-03T01:03:18.688Z,5.70
2022-11-03T01:05:18.644Z,5.70
2022-11-03T01:07:18.661Z,5.70
2022-11-03T01:09:33.491Z,5.60
2022-11-03T01:11:18.659Z,5.50
2022-11-03T01:13:18.766Z,5.40
2022-11-03T01:15:18.686Z,5.30
2022-11-03T01:17:18.729Z,5.30
2022-11-03T01:19:18.662Z,5.30
2022-11-03T01:21:18.648Z,5.20
2022-11-03T01:23:18.658Z,5.20
2022-11-03T01:25:18.708Z,5.30
2022-11-03T01:27:18.677Z,5.30
2022-11-03T01:29:18.772Z,5.30
2022-11-03T01:31:18.685Z,5.20
2022-11-03T01:33:18.688Z,5.20
2022-11-03T01:35:18.748Z,5.20
2022-11-03T01:37:18.645Z,5.20
2022-11-03T01:39:18.688Z,5.30
2022-11-03T01:41:18.759Z,5.40
2022-11-03T01:43:18.645Z,5.80
2022-11-03T01:45:18.751Z,5.80
2022-11-03T01:47:18.710Z,5.80
2022-11-03T01:49:18.760Z,5.80
2022-11-03T01:51:18.709Z,5.80
2022-11-03T01:53:18.715Z,6.00
2022-11-03T01:55:18.806Z,6.00
2022-11-03T01:57:18.654Z,6.00
2022-11-03T01:59:18.780Z,6.00
2022-11-03T02:01:18.781Z,5.90
2022-11-03T02:03:18.696Z,5.90
2022-11-03T02:05:18.738Z,5.90
2022-11-03T02:07:18.695Z,6.10
2022-11-03T02:09:18.711Z,6.00
2022-11-03T02:11:18.767Z,6.10
2022-11-03T02:13:18.706Z,6.10
2022-11-03T02:15:18.725Z,6.20
2022-11-03T02:17:18.679Z,6.40
2022-11-03T02:19:18.751Z,6.40
2022-11-03T02:21:18.709Z,6.60
2022-11-03T02:23:18.688Z,6.60
2022-11-03T02:25:18.829Z,6.90
2022-11-03T02:27:18.697Z,6.90
2022-11-03T02:29:18.689Z,7.00
2022-11-03T02:31:18.724Z,7.00
2022-11-03T02:33:48.726Z,6.90
2022-11-03T02:35:48.791Z,6.90
2022-11-03T02:37:48.737Z,7.00
2022-11-03T02:39:48.826Z,7.00
2022-11-03T02:41:48.730Z,6.90
2022-11-03T02:43:48.734Z,6.80
2022-11-03T02:45:48.792Z,6.80
2022-11-03T02:47:48.692Z,6.80
2022-11-03T02:49:48.748Z,6.80
2022-11-03T02:51:48.787Z,6.90
2022-11-03T02:53:48.704Z,7.10
2022-11-03T02:55:48.730Z,7.10
2022-11-03T02:57:48.737Z,7.20
2022-11-03T02:59:48.695Z,7.30
2022-11-03T03:01:48.967Z,7.40
2022-11-03T03:03:48.758Z,7.40
2022-11-03T03:05:48.697Z,7.50
2022-11-03T03:07:48.733Z,7.50
2022-11-03T03:09:48.703Z,7.80
2022-11-03T03:11:48.727Z,7.80
2022-11-03T03:13:48.704Z,7.80
2022-11-03T03:15:48.804Z,7.80
2022-11-03T03:17:48.741Z,7.80
2022-11-03T03:19:48.738Z,7.80
2022-11-03T03:21:48.747Z,7.80
2022-11-03T03:23:48.773Z,7.80
2022-11-03T03:25:48.728Z,7.80
2022-11-03T03:27:48.821Z,8.00
2022-11-03T03:29:48.701Z,8.10
2022-11-03T03:31:48.764Z,8.10
2022-11-03T03:33:48.782Z,8.10
2022-11-03T03:35:48.745Z,8.20
2022-11-03T03:37:48.732Z,8.40
2022-11-03T03:39:48.767Z,8.40
2022-11-03T03:41:48.712Z,8.40
2022-11-03T03:43:48.735Z,8.40
2022-11-03T03:45:48.785Z,8.40
2022-11-03T03:47:49.923Z,8.40
2022-11-03T03:49:48.718Z,8.40
2022-11-03T03:51:48.753Z,8.40
2022-11-03T03:53:48.791Z,8.60
2022-11-03T03:55:48.722Z,8.50
2022-11-03T03:57:48.788Z,8.40
2022-11-03T03:59:48.765Z,8.40
2022-11-03T04:01:49.044Z,8.40
2022-11-03T04:03:48.746Z,8.40
2022-11-03T04:05:48.741Z,8.50
2022-11-03T04:07:48.866Z,8.50
2022-11-03T04:09:48.790Z,8.50
2022-11-03T04:11:48.732Z,8.60
2022-11-03T04:13:48.778Z,8.60
2022-11-03T04:15:48.754Z,8.60
2022-11-03T04:19:48.791Z,8.60
2022-11-03T04:21:48.778Z,8.60
2022-11-03T04:23:48.760Z,8.60
2022-11-03T04:25:48.879Z,8.50
2022-11-03T04:27:48.766Z,8.50
2022-11-03T04:29:48.862Z,8.50
2022-11-03T04:32:18.738Z,8.50
2022-11-03T04:34:18.828Z,8.50
2022-11-03T04:36:18.813Z,8.50
2022-11-03T04:38:18.764Z,8.50
2022-11-03T04:40:18.846Z,8.40
2022-11-03T04:42:18.760Z,8.50
2022-11-03T04:44:18.796Z,8.50
2022-11-03T04:46:18.824Z,8.40
2022-11-03T04:48:18.775Z,8.40
2022-11-03T04:50:18.775Z,8.40
2022-11-03T04:52:18.810Z,8.40
2022-11-03T04:54:18.875Z,8.40
2022-11-03T04:56:18.833Z,8.40
2022-11-03T04:58:18.758Z,8.40
2022-11-03T05:00:18.882Z,8.30
2022-11-03T05:02:18.834Z,8.30
2022-11-03T05:04:18.839Z,8.30
2022-11-03T05:06:18.770Z,8.30
2022-11-03T05:08:18.838Z,8.20
2022-11-03T05:10:18.867Z,8.20
2022-11-03T05:12:18.783Z,8.20
2022-11-03T05:14:18.814Z,8.10
2022-11-03T05:16:18.830Z,8.10
2022-11-03T05:18:18.820Z,8.10
2022-11-03T05:20:18.799Z,8.00
2022-11-03T05:22:18.986Z,8.00
2022-11-03T05:24:18.828Z,8.00
2022-11-03T05:26:18.901Z,8.00
2022-11-03T05:28:18.849Z,8.00
2022-11-03T05:30:18.832Z,8.00
2022-11-03T05:32:18.824Z,8.00
2022-11-03T05:34:18.794Z,8.00
2022-11-03T05:36:18.824Z,8.00
2022-11-03T05:38:18.883Z,8.00
2022-11-03T05:40:18.894Z,8.00
2022-11-03T05:42:18.808Z,8.00
2022-11-03T05:44:18.827Z,8.00
2022-11-03T05:46:18.850Z,8.00
2022-11-03T05:48:18.835Z,8.00
2022-11-03T05:50:18.892Z,8.00
2022-11-03T05:52:18.932Z,8.10
2022-11-03T05:54:19.855Z,8.10
2022-11-03T05:56:18.924Z,8.00
2022-11-03T05:58:18.829Z,8.00
2022-11-03T06:00:18.801Z,8.00
2022-11-03T06:02:18.932Z,7.90
2022-11-03T06:04:18.863Z,7.90
2022-11-03T06:06:18.902Z,7.90
2022-11-03T06:08:18.982Z,7.90
2022-11-03T06:10:18.829Z,7.80
2022-11-03T06:12:18.920Z,7.80
2022-11-03T06:14:19.996Z,7.80
2022-11-03T06:16:18.927Z,7.80
2022-11-03T06:18:18.857Z,7.70
2022-11-03T06:20:18.831Z,7.70
2022-11-03T06:22:18.916Z,7.70
2022-11-03T06:24:18.996Z,7.60
2022-11-03T06:26:18.923Z,7.70
2022-11-03T06:28:18.959Z,7.60
2022-11-03T06:30:48.965Z,7.60
2022-11-03T06:32:48.816Z,7.70
2022-11-03T06:34:48.884Z,7.70
2022-11-03T06:36:48.878Z,7.70
2022-11-03T06:38:48.902Z,7.60
2022-11-03T06:40:48.904Z,7.60
2022-11-03T06:42:49.065Z,7.60
2022-11-03T06:44:48.898Z,7.60
2022-11-03T06:46:48.898Z,7.70
2022-11-03T06:48:48.876Z,7.60
2022-11-03T06:50:48.933Z,7.70
2022-11-03T06:54:48.907Z,7.70
2022-11-03T06:56:48.954Z,7.70
2022-11-03T06:58:48.958Z,7.70
2022-11-03T07:02:41.762Z,7.70
2022-11-03T07:04:41.732Z,7.70
2022-11-03T07:06:41.670Z,7.80
2022-11-03T07:08:41.777Z,7.80
2022-11-03T07:10:41.692Z,7.80
2022-11-03T07:12:41.682Z,7.80
2022-11-03T07:14:41.710Z,7.90
2022-11-03T07:16:41.673Z,7.90
2022-11-03T07:18:41.747Z,7.90
2022-11-03T07:20:41.739Z,7.90
2022-11-03T07:22:41.783Z,7.90
2022-11-03T07:24:41.676Z,7.90
2022-11-03T07:26:41.810Z,7.90
2022-11-03T07:28:41.673Z,8.00
2022-11-03T07:30:41.716Z,8.00
2022-11-03T07:32:41.695Z,8.00
2022-11-03T07:34:41.661Z,8.00
2022-11-03T07:36:41.709Z,8.00
2022-11-03T07:38:41.709Z,8.00
2022-11-03T07:40:41.775Z,8.00
2022-11-03T07:42:41.778Z,8.00
2022-11-03T07:44:41.658Z,8.00
2022-11-03T07:46:41.700Z,8.00
2022-11-03T07:48:41.691Z,8.00
2022-11-03T07:50:41.735Z,8.00
2022-11-03T07:52:41.751Z,8.00
2022-11-03T07:54:41.732Z,7.80
2022-11-03T07:56:41.681Z,7.70
2022-11-03T07:59:11.823Z,7.70
2022-11-03T08:01:11.783Z,7.70
2022-11-03T08:03:11.759Z,7.60
2022-11-03T08:05:11.783Z,7.60
2022-11-03T08:07:11.733Z,7.70
2022-11-03T08:09:12.157Z,7.70
2022-11-03T08:11:11.769Z,7.70
2022-11-03T08:13:11.697Z,7.90
2022-11-03T08:15:11.770Z,7.90
2022-11-03T08:17:11.723Z,8.00
2022-11-03T08:19:11.787Z,8.00
2022-11-03T08:21:11.727Z,8.10
2022-11-03T08:23:25.253Z,8.20
2022-11-03T08:25:11.716Z,8.30
2022-11-03T08:27:11.720Z,8.40
2022-11-03T08:29:11.720Z,8.40
2022-11-03T08:31:13.133Z,8.50
2022-11-03T08:33:11.782Z,8.50
2022-11-03T08:35:11.782Z,8.70
2022-11-03T08:37:11.713Z,8.70
2022-11-03T08:39:11.765Z,8.80
2022-11-03T08:41:11.711Z,8.90
2022-11-03T08:43:11.756Z,9.00
2022-11-03T08:45:11.714Z,9.20
2022-11-03T08:47:11.736Z,9.20
2022-11-03T08:49:11.730Z,9.20
2022-11-03T08:51:11.707Z,9.30
2022-11-03T08:53:11.755Z,9.40
2022-11-03T08:55:11.817Z,9.50
2022-11-03T08:57:11.828Z,9.50
2022-11-03T08:59:11.748Z,9.50
2022-11-03T09:01:11.861Z,9.60
2022-11-03T09:03:11.831Z,9.60
2022-11-03T09:05:11.819Z,9.80
2022-11-03T09:07:11.791Z,9.80
2022-11-03T09:11:11.891Z,9.80
2022-11-03T09:13:11.732Z,9.80
2022-11-03T09:15:11.874Z,9.80
2022-11-03T09:17:11.791Z,10.00
2022-11-03T09:19:11.792Z,9.90
2022-11-03T09:21:11.829Z,9.90
2022-11-03T09:23:11.848Z,9.90
2022-11-03T09:25:11.785Z,9.90
2022-11-03T09:27:11.748Z,10.00
2022-11-03T09:29:11.769Z,10.00
2022-11-03T09:31:11.888Z,10.10
2022-11-03T09:33:11.791Z,10.20
2022-11-03T09:35:11.754Z,10.20
2022-11-03T09:37:11.823Z,10.40
2022-11-03T09:39:11.785Z,10.60
2022-11-03T09:41:25.010Z,10.60
2022-11-03T09:43:11.863Z,10.60
2022-11-03T09:45:11.764Z,10.60
2022-11-03T09:47:11.809Z,10.70
2022-11-03T09:49:11.763Z,10.60
2022-11-03T09:51:11.812Z,10.50
2022-11-03T09:53:11.852Z,10.50
2022-11-03T09:55:41.917Z,10.70
2022-11-03T09:57:41.864Z,10.70
2022-11-03T09:59:41.760Z,10.50
2022-11-03T10:01:41.898Z,10.50
2022-11-03T10:03:41.819Z,10.80
2022-11-03T10:05:41.752Z,10.70
2022-11-03T10:07:41.890Z,10.70
2022-11-03T10:09:41.780Z,10.60
2022-11-03T10:11:41.891Z,10.60
2022-11-03T10:13:41.832Z,10.30
2022-11-03T10:15:41.801Z,10.30
2022-11-03T10:17:41.773Z,10.20
2022-11-03T10:19:41.788Z,10.10
2022-11-03T10:21:41.902Z,10.30
2022-11-03T10:23:41.776Z,10.70
2022-11-03T10:25:41.777Z,10.70
2022-11-03T10:27:41.820Z,10.80
2022-11-03T10:29:43.725Z,10.80
2022-11-03T10:31:41.823Z,10.70
2022-11-03T10:33:41.865Z,10.70
2022-11-03T10:35:41.875Z,10.70
2022-11-03T10:37:41.775Z,10.50
2022-11-03T10:39:41.856Z,10.60
2022-11-03T10:41:41.908Z,10.80
2022-11-03T10:43:41.788Z,10.80
2022-11-03T10:45:41.792Z,10.90
2022-11-03T10:47:41.786Z,11.00
2022-11-03T10:49:43.840Z,11.00
2022-11-03T10:51:44.323Z,10.80
2022-11-03T10:53:41.858Z,10.80
2022-11-03T10:55:41.995Z,10.80
2022-11-03T10:57:41.882Z,10.60
2022-11-03T10:59:41.955Z,10.70
2022-11-03T11:01:41.985Z,10.90
2022-11-03T11:03:41.952Z,10.90
2022-11-03T11:05:41.852Z,10.90
2022-11-03T11:07:41.946Z,11.00
2022-11-03T11:09:41.916Z,11.10
2022-11-03T11:11:41.953Z,11.10
2022-11-03T11:13:41.911Z,11.20
2022-11-03T11:15:41.908Z,11.20
2022-11-03T11:17:41.797Z,11.20
2022-11-03T11:19:41.825Z,11.40
2022-11-03T11:21:41.843Z,11.40
2022-11-03T11:23:41.815Z,11.50
2022-11-03T11:25:41.881Z,11.60
2022-11-03T11:27:41.836Z,11.60
2022-11-03T11:29:41.954Z,11.50
2022-11-03T11:31:41.827Z,11.50
2022-11-03T11:33:41.991Z,11.50
2022-11-03T11:35:41.869Z,11.50
2022-11-03T11:37:41.927Z,11.60
2022-11-03T11:39:41.931Z,11.60
2022-11-03T11:41:41.930Z,11.60
2022-11-03T11:43:41.944Z,11.60
2022-11-03T11:45:41.859Z,11.60
2022-11-03T11:47:41.874Z,11.60
2022-11-03T11:49:41.991Z,11.60
2022-11-03T11:51:41.895Z,11.60
2022-11-03T11:54:18.130Z,11.60
2022-11-03T11:56:11.914Z,11.60
2022-11-03T11:58:13.892Z,11.50
2022-11-03T12:00:12.012Z,11.50
2022-11-03T12:02:11.823Z,11.50
2022-11-03T12:04:12.155Z,11.40
2022-11-03T12:06:12.003Z,11.30
2022-11-03T12:08:11.927Z,11.20
2022-11-03T12:10:11.940Z,11.20
2022-11-03T12:12:11.961Z,11.30
2022-11-03T12:14:12.024Z,11.40
2022-11-03T12:16:11.958Z,11.40
2022-11-03T12:18:11.989Z,11.40
2022-11-03T12:20:11.886Z,11.30
2022-11-03T12:22:11.978Z,11.30
2022-11-03T12:24:11.967Z,11.30
2022-11-03T12:26:11.956Z,11.20
2022-11-03T12:28:11.964Z,11.20
2022-11-03T12:30:12.151Z,11.10
2022-11-03T12:32:25.825Z,10.90
2022-11-03T12:34:11.910Z,10.80
2022-11-03T12:36:11.876Z,10.80
2022-11-03T12:38:11.906Z,10.80
2022-11-03T12:40:11.897Z,10.60
2022-11-03T12:42:11.950Z,10.50
2022-11-03T12:44:11.993Z,10.60
2022-11-03T12:46:11.970Z,10.60
2022-11-03T12:48:12.002Z,10.60
2022-11-03T12:50:11.954Z,10.60
2022-11-03T12:52:11.903Z,10.70
2022-11-03T12:54:11.946Z,10.70
2022-11-03T12:56:11.960Z,10.70
2022-11-03T12:58:11.950Z,10.70
2022-11-03T13:00:12.002Z,10.60
2022-11-03T13:02:12.096Z,10.60
2022-11-03T13:04:11.989Z,10.60
2022-11-03T13:06:11.936Z,10.60
2022-11-03T13:08:11.963Z,10.60
2022-11-03T13:10:11.954Z,10.60
2022-11-03T13:12:11.998Z,10.70
2022-11-03T13:14:11.959Z,10.70
2022-11-03T13:16:12.014Z,10.60
2022-11-03T13:18:13.729Z,10.60
2022-11-03T13:20:12.032Z,10.60
2022-11-03T13:22:11.891Z,10.50
2022-11-03T13:24:11.947Z,10.50
2022-11-03T13:26:11.944Z,10.50
2022-11-03T13:28:11.995Z,10.40
2022-11-03T13:30:12.002Z,10.50
2022-11-03T13:32:11.984Z,10.50
2022-11-03T13:34:11.943Z,10.50
2022-11-03T13:36:12.086Z,10.50
2022-11-03T13:38:11.953Z,10.60
2022-11-03T13:40:29.186Z,10.60
2022-11-03T13:42:12.082Z,10.60
2022-11-03T13:44:12.087Z,10.60
2022-11-03T13:46:12.112Z,10.60
2022-11-03T13:49:51.052Z,10.70
2022-11-03T13:50:42.063Z,10.70
2022-11-03T13:52:42.861Z,10.60
2022-11-03T14:00:27.635Z,10.50
2022-11-03T14:04:43.955Z,10.40
2022-11-03T14:06:27.592Z,10.40
2022-11-03T14:08:27.636Z,10.30
2022-11-03T14:10:27.645Z,10.30
2022-11-03T14:12:27.676Z,10.30
2022-11-03T14:14:27.690Z,10.30
2022-11-03T14:16:27.769Z,10.30
2022-11-03T14:18:27.684Z,10.20
2022-11-03T14:22:27.675Z,10.30
2022-11-03T14:24:27.645Z,10.30
2022-11-03T14:26:41.863Z,10.40
2022-11-03T14:28:27.719Z,10.40
2022-11-03T14:30:27.717Z,10.40
2022-11-03T14:32:27.722Z,10.40
2022-11-03T14:34:27.853Z,10.40
2022-11-03T14:36:27.655Z,10.20
2022-11-03T14:38:27.628Z,10.20
2022-11-03T14:40:27.683Z,10.20
2022-11-03T14:42:27.838Z,10.10
2022-11-03T14:44:27.673Z,10.10
2022-11-03T14:46:27.734Z,10.00
2022-11-03T14:48:57.631Z,9.90
2022-11-03T14:50:57.665Z,9.80
2022-11-03T14:52:59.832Z,9.80
2022-11-03T14:54:57.668Z,9.80
2022-11-03T14:56:57.623Z,9.80
2022-11-03T14:58:57.703Z,9.70
2022-11-03T15:00:57.865Z,9.70
2022-11-03T15:02:57.728Z,9.70
2022-11-03T15:04:57.665Z,9.70
2022-11-03T15:06:57.658Z,9.70
2022-11-03T15:08:57.719Z,9.70
2022-11-03T15:10:57.667Z,9.70
2022-11-03T15:12:57.705Z,9.70
2022-11-03T15:14:57.743Z,9.60
2022-11-03T15:16:57.713Z,9.60
2022-11-03T15:18:57.755Z,9.60
2022-11-03T15:20:57.661Z,9.60
2022-11-03T15:25:12.853Z,9.60
2022-11-03T15:26:57.703Z,9.50
2022-11-03T15:28:57.698Z,9.50
2022-11-03T15:30:57.784Z,9.50
2022-11-03T15:32:57.790Z,9.50
2022-11-03T15:34:57.771Z,9.50
2022-11-03T15:36:57.713Z,9.50
2022-11-03T15:38:57.741Z,9.60
2022-11-03T15:40:57.724Z,9.60
2022-11-03T15:43:01.932Z,9.50
2022-11-03T15:44:57.740Z,9.50
2022-11-03T15:46:57.754Z,9.50
2022-11-03T15:48:57.934Z,9.50
2022-11-03T15:50:57.778Z,9.60
2022-11-03T15:52:57.735Z,9.50
2022-11-03T15:54:57.724Z,9.50
2022-11-03T15:56:57.653Z,9.40
2022-11-03T15:58:57.746Z,9.40
2022-11-03T16:00:57.779Z,9.40
2022-11-03T16:02:57.898Z,9.40
2022-11-03T16:04:57.738Z,9.40
2022-11-03T16:07:08.587Z,9.20
2022-11-03T16:08:57.743Z,9.20
2022-11-03T16:10:58.385Z,9.20
2022-11-03T16:12:57.746Z,9.20
2022-11-03T16:14:57.736Z,9.20
2022-11-03T16:16:57.743Z,9.20
2022-11-03T16:18:57.793Z,9.10
2022-11-03T16:20:57.714Z,9.10
2022-11-03T16:22:57.684Z,9.00
2022-11-03T16:24:57.730Z,9.00
2022-11-03T16:26:57.749Z,9.00
2022-11-03T16:28:57.734Z,9.00
2022-11-03T16:30:57.788Z,9.00
2022-11-03T16:32:57.838Z,9.00
2022-11-03T16:34:57.721Z,9.00
2022-11-03T16:36:57.755Z,9.00
2022-11-03T16:38:57.703Z,9.00
2022-11-03T16:40:57.720Z,9.00
2022-11-03T16:42:57.742Z,8.90
2022-11-03T16:44:57.786Z,8.90
2022-11-03T16:47:27.763Z,8.90
2022-11-03T16:49:27.729Z,8.90
2022-11-03T16:51:27.789Z,8.90
2022-11-03T16:53:27.739Z,9.00
2022-11-03T16:55:27.741Z,9.00
2022-11-03T16:57:27.692Z,9.00
2022-11-03T16:59:30.937Z,9.00
2022-11-03T17:01:27.856Z,9.10
2022-11-03T17:03:27.941Z,9.00
2022-11-03T17:05:27.850Z,9.00
2022-11-03T17:07:27.751Z,9.00
2022-11-03T17:09:27.732Z,9.00
2022-11-03T17:11:27.762Z,9.00
2022-11-03T17:13:27.829Z,9.00
2022-11-03T17:15:27.781Z,9.00
2022-11-03T17:17:27.836Z,9.00
2022-11-03T17:19:27.859Z,9.00
2022-11-03T17:21:27.801Z,9.00
2022-11-03T17:23:27.706Z,9.00
2022-11-03T17:25:27.766Z,9.00
2022-11-03T17:27:27.812Z,9.00
2022-11-03T17:29:27.801Z,9.10
2022-11-03T17:31:27.829Z,9.10
2022-11-03T17:33:27.810Z,9.10
2022-11-03T17:35:27.755Z,9.40
2022-11-03T17:37:27.900Z,9.50
2022-11-03T17:41:27.743Z,9.60
2022-11-03T17:43:27.770Z,9.60
2022-11-03T17:45:27.810Z,9.70
2022-11-03T17:47:27.808Z,9.80
2022-11-03T17:49:27.819Z,9.90
2022-11-03T17:51:27.890Z,9.90
2022-11-03T17:53:27.730Z,9.90
2022-11-03T17:55:27.765Z,9.90
2022-11-03T17:57:27.772Z,9.80
2022-11-03T17:59:27.791Z,9.70
2022-11-03T18:01:28.014Z,9.70
2022-11-03T18:03:27.810Z,9.70
2022-11-03T18:05:27.822Z,9.60
2022-11-03T18:07:27.865Z,9.60
2022-11-03T18:09:28.866Z,9.70
2022-11-03T18:11:27.795Z,9.70
2022-11-03T18:13:31.586Z,9.70
2022-11-03T18:15:27.795Z,9.70
2022-11-03T18:17:27.817Z,9.70
2022-11-03T18:19:27.849Z,9.70
2022-11-03T18:21:27.837Z,9.70
2022-11-03T18:23:27.893Z,9.70
2022-11-03T18:25:27.765Z,9.80
2022-11-03T18:27:27.821Z,9.80
2022-11-03T18:29:27.790Z,9.80
2022-11-03T18:31:28.788Z,9.80
2022-11-03T18:33:27.841Z,9.90
2022-11-03T18:35:27.859Z,9.90
2022-11-03T18:37:27.814Z,10.00
2022-11-03T18:39:27.820Z,10.00
2022-11-03T18:41:27.773Z,10.00
2022-11-03T18:43:27.828Z,10.00
2022-11-03T18:45:57.803Z,10.10
2022-11-03T18:47:57.868Z,10.20
2022-11-03T18:49:58.021Z,10.20
2022-11-03T18:52:02.410Z,10.20
2022-11-03T18:53:57.743Z,10.20
2022-11-03T18:55:57.785Z,10.20
2022-11-03T18:57:57.765Z,10.20
2022-11-03T18:59:57.881Z,10.20
2022-11-03T19:01:57.964Z,10.20
2022-11-03T19:03:57.888Z,10.00
2022-11-03T19:05:57.864Z,10.00
2022-11-03T19:07:57.906Z,10.00
2022-11-03T19:09:57.814Z,10.00
2022-11-03T19:11:57.850Z,10.00
2022-11-03T19:13:57.814Z,10.00
2022-11-03T19:15:57.846Z,10.10
2022-11-03T19:17:57.881Z,10.20
2022-11-03T19:19:57.883Z,10.20
2022-11-03T19:21:58.146Z,10.30
2022-11-03T19:23:58.624Z,10.30
2022-11-03T19:25:57.814Z,10.50
2022-11-03T19:27:57.822Z,10.70
2022-11-03T19:29:57.829Z,10.70
2022-11-03T19:31:57.853Z,10.80
2022-11-03T19:33:57.883Z,10.90
2022-11-03T19:35:57.829Z,11.00
2022-11-03T19:37:57.930Z,11.00
2022-11-03T19:39:58.005Z,11.00
2022-11-03T19:41:57.825Z,10.90
2022-11-03T19:43:57.839Z,10.80
2022-11-03T19:45:57.872Z,10.80
2022-11-03T19:48:23.026Z,10.80
2022-11-03T19:49:57.904Z,10.80
2022-11-03T19:51:57.904Z,10.80
2022-11-03T19:53:57.919Z,10.80
2022-11-03T19:55:57.817Z,10.80
2022-11-03T19:57:57.785Z,10.80
2022-11-03T19:59:57.869Z,10.80
2022-11-03T20:01:57.963Z,10.90
2022-11-03T20:03:57.882Z,10.90
2022-11-03T20:05:57.814Z,10.90
2022-11-03T20:07:58.003Z,10.90
2022-11-03T20:09:57.911Z,11.00
2022-11-03T20:11:57.834Z,11.00
2022-11-03T20:13:57.909Z,11.00
2022-11-03T20:16:00.979Z,11.00
2022-11-03T20:17:57.903Z,11.00
2022-11-03T20:19:58.015Z,11.10
2022-11-03T20:21:57.938Z,11.10
2022-11-03T20:23:58.008Z,11.10
2022-11-03T20:25:57.930Z,11.10
2022-11-03T20:27:57.870Z,11.10
2022-11-03T20:29:57.892Z,11.00
2022-11-03T20:31:57.943Z,10.60
2022-11-03T20:33:57.920Z,10.50
2022-11-03T20:35:57.998Z,10.50
2022-11-03T20:37:57.959Z,10.40
2022-11-03T20:39:58.106Z,10.40
2022-11-03T20:42:27.966Z,10.50
2022-11-03T20:44:27.905Z,10.50
2022-11-03T20:46:27.975Z,10.50
2022-11-03T20:48:27.980Z,10.50
2022-11-03T20:50:27.968Z,10.60
2022-11-03T20:52:28.164Z,10.60
2022-11-03T20:54:27.995Z,10.60
2022-11-03T20:56:27.966Z,10.60
2022-11-03T20:58:27.973Z,10.40
2022-11-03T21:00:27.998Z,10.30
2022-11-03T21:02:29.796Z,10.30
2022-11-03T21:04:28.081Z,10.30
2022-11-03T21:06:27.997Z,10.20
2022-11-03T21:08:28.043Z,10.10
2022-11-03T21:12:24.396Z,10.20
2022-11-03T21:14:24.394Z,10.20
2022-11-03T21:16:24.925Z,10.20
2022-11-03T21:18:24.442Z,10.10
2022-11-03T21:20:24.458Z,10.10
2022-11-03T21:22:50.361Z,10.10
2022-11-03T21:24:24.456Z,10.00
2022-11-03T21:26:24.437Z,10.00
2022-11-03T21:28:24.535Z,10.00
2022-11-03T21:30:24.421Z,10.00
2022-11-03T21:32:24.439Z,10.00
2022-11-03T21:34:24.547Z,10.00
2022-11-03T21:36:24.479Z,10.00
2022-11-03T21:38:24.488Z,10.00
2022-11-03T21:40:24.519Z,10.00
2022-11-03T21:42:24.443Z,10.00
2022-11-03T21:44:24.406Z,10.00
2022-11-03T21:46:24.475Z,10.00
2022-11-03T21:48:24.508Z,9.90
2022-11-03T21:50:24.488Z,9.90
2022-11-03T21:52:24.502Z,9.90
2022-11-03T21:54:24.530Z,9.90
2022-11-03T21:56:24.543Z,9.80
2022-11-03T21:58:24.394Z,9.80
2022-11-03T22:00:24.419Z,9.80
2022-11-03T22:02:24.487Z,9.80
2022-11-03T22:04:24.508Z,9.70
2022-11-03T22:06:24.528Z,9.70
2022-11-03T22:08:24.473Z,9.60
2022-11-03T22:10:24.441Z,9.60
2022-11-03T22:12:24.534Z,9.60
2022-11-03T22:14:24.829Z,9.60
2022-11-03T22:16:24.407Z,9.60
2022-11-03T22:18:24.433Z,9.50
2022-11-03T22:20:24.421Z,9.50
2022-11-03T22:22:54.453Z,9.50
2022-11-03T22:24:54.409Z,9.50
2022-11-03T22:26:54.453Z,9.50
2022-11-03T22:28:54.419Z,9.50
2022-11-03T22:30:54.461Z,9.50
2022-11-03T22:32:54.500Z,9.50
2022-11-03T22:34:54.517Z,9.50
2022-11-03T22:36:54.418Z,9.50
2022-11-03T22:38:54.419Z,9.60
2022-11-03T22:40:54.466Z,9.60
2022-11-03T22:42:54.434Z,9.60
2022-11-03T22:44:54.471Z,9.60
2022-11-03T22:46:54.427Z,9.60
2022-11-03T22:48:54.451Z,10.30
2022-11-03T22:50:54.426Z,10.30
2022-11-03T22:52:54.479Z,10.30
2022-11-03T22:54:54.442Z,10.40
2022-11-03T22:56:54.422Z,10.50
2022-11-03T22:58:54.552Z,10.60
2022-11-03T23:00:54.503Z,10.60
2022-11-03T23:02:54.448Z,10.60
2022-11-03T23:04:54.549Z,10.60
2022-11-03T23:06:54.440Z,10.70
2022-11-03T23:08:54.510Z,10.60
2022-11-03T23:10:54.790Z,10.60
2022-11-03T23:12:54.454Z,10.80
2022-11-03T23:14:54.466Z,10.70
2022-11-03T23:16:54.594Z,10.60
2022-11-03T23:18:54.485Z,10.50
2022-11-03T23:20:54.453Z,10.50
2022-11-03T23:22:54.523Z,10.40
2022-11-03T23:24:54.573Z,10.40
2022-11-03T23:26:54.441Z,10.40
2022-11-03T23:28:54.464Z,10.40
2022-11-03T23:30:54.523Z,10.40
2022-11-03T23:32:54.486Z,10.40
2022-11-03T23:34:54.529Z,10.00
2022-11-03T23:36:54.515Z,10.00
2022-11-03T23:38:54.467Z,10.00
2022-11-03T23:40:54.441Z,10.00
2022-11-03T23:42:54.574Z,9.80
2022-11-03T23:44:54.612Z,9.80
2022-11-03T23:46:54.467Z,9.70
2022-11-03T23:48:54.491Z,9.70
2022-11-03T23:50:54.482Z,9.70
2022-11-03T23:52:54.502Z,9.60
2022-11-03T23:54:54.557Z,9.60
2022-11-03T23:56:54.478Z,9.60
2022-11-03T23:58:54.627Z,9.60
